sensor_id;sensor_type;location;lat;lon;timestamp;P1;durP1;ratioP1;P2;durP2;ratioP2
36303;SDS011;22335;49.800;8.596;2023-04-24T00:06:36;6.25;;;5.80;;
36303;SDS011;22335;49.800;8.596;2023-04-24T00:13:23;5.95;;;5.50;;
36303;SDS011;22335;49.800;8.596;2023-04-24T00:20:09;6.00;;;5.70;;
36303;SDS011;22335;49.800;8.596;2023-04-24T00:26:57;6.00;;;5.60;;
36303;SDS011;22335;49.800;8.596;2023-04-24T00:33:42;5.72;;;5.30;;
36303;SDS011;22335;49.800;8.596;2023-04-24T00:40:26;6.00;;;5.60;;
36303;SDS011;22335;49.800;8.596;2023-04-24T00:47:11;6.18;;;5.75;;
36303;SDS011;22335;49.800;8.596;2023-04-24T00:53:56;6.30;;;5.90;;
36303;SDS011;22335;49.800;8.596;2023-04-24T01:00:39;6.45;;;6.13;;
36303;SDS011;22335;49.800;8.596;2023-04-24T01:07:24;7.55;;;6.38;;
36303;SDS011;22335;49.800;8.596;2023-04-24T01:14:08;6.43;;;5.97;;
36303;SDS011;22335;49.800;8.596;2023-04-24T01:20:52;7.03;;;6.28;;
36303;SDS011;22335;49.800;8.596;2023-04-24T01:27:40;6.40;;;5.93;;
36303;SDS011;22335;49.800;8.596;2023-04-24T01:34:25;6.70;;;6.30;;
36303;SDS011;22335;49.800;8.596;2023-04-24T01:41:09;6.68;;;6.28;;
36303;SDS011;22335;49.800;8.596;2023-04-24T01:47:54;7.97;;;7.38;;
36303;SDS011;22335;49.800;8.596;2023-04-24T01:54:39;6.90;;;6.37;;
36303;SDS011;22335;49.800;8.596;2023-04-24T02:01:23;6.65;;;6.25;;
36303;SDS011;22335;49.800;8.596;2023-04-24T02:08:08;6.85;;;6.35;;
36303;SDS011;22335;49.800;8.596;2023-04-24T02:14:52;6.70;;;6.25;;
36303;SDS011;22335;49.800;8.596;2023-04-24T02:21:35;6.65;;;6.22;;
36303;SDS011;22335;49.800;8.596;2023-04-24T02:28:20;6.65;;;6.18;;
36303;SDS011;22335;49.800;8.596;2023-04-24T02:35:04;6.78;;;6.38;;
36303;SDS011;22335;49.800;8.596;2023-04-24T02:41:49;7.65;;;7.03;;
36303;SDS011;22335;49.800;8.596;2023-04-24T03:03:36;7.13;;;6.63;;
36303;SDS011;22335;49.800;8.596;2023-04-24T03:10:19;7.00;;;6.40;;
36303;SDS011;22335;49.800;8.596;2023-04-24T03:17:03;6.65;;;6.25;;
36303;SDS011;22335;49.800;8.596;2023-04-24T03:23:48;7.07;;;6.40;;
36303;SDS011;22335;49.800;8.596;2023-04-24T03:30:32;6.53;;;5.95;;
36303;SDS011;22335;49.800;8.596;2023-04-24T03:37:16;6.78;;;6.20;;
36303;SDS011;22335;49.800;8.596;2023-04-24T03:44:11;7.28;;;6.78;;
36303;SDS011;22335;49.800;8.596;2023-04-24T03:50:55;6.82;;;6.22;;
36303;SDS011;22335;49.800;8.596;2023-04-24T03:57:39;7.05;;;6.63;;
36303;SDS011;22335;49.800;8.596;2023-04-24T04:04:33;7.20;;;6.30;;
36303;SDS011;22335;49.800;8.596;2023-04-24T04:11:17;6.90;;;6.40;;
36303;SDS011;22335;49.800;8.596;2023-04-24T04:18:00;6.95;;;6.55;;
36303;SDS011;22335;49.800;8.596;2023-04-24T04:24:46;7.20;;;6.80;;
36303;SDS011;22335;49.800;8.596;2023-04-24T04:31:30;7.15;;;6.70;;
36303;SDS011;22335;49.800;8.596;2023-04-24T04:38:17;6.97;;;6.47;;
36303;SDS011;22335;49.800;8.596;2023-04-24T04:45:14;7.85;;;7.25;;
36303;SDS011;22335;49.800;8.596;2023-04-24T04:52:24;7.63;;;6.95;;
36303;SDS011;22335;49.800;8.596;2023-04-24T04:59:17;7.60;;;7.05;;
36303;SDS011;22335;49.800;8.596;2023-04-24T05:06:05;8.07;;;7.57;;
36303;SDS011;22335;49.800;8.596;2023-04-24T05:12:52;8.70;;;8.13;;
36303;SDS011;22335;49.800;8.596;2023-04-24T05:19:35;8.00;;;7.50;;
36303;SDS011;22335;49.800;8.596;2023-04-24T05:26:22;7.93;;;7.43;;
36303;SDS011;22335;49.800;8.596;2023-04-24T05:33:06;8.10;;;7.40;;
36303;SDS011;22335;49.800;8.596;2023-04-24T05:39:51;7.60;;;7.10;;
36303;SDS011;22335;49.800;8.596;2023-04-24T05:46:35;8.40;;;7.80;;
36303;SDS011;22335;49.800;8.596;2023-04-24T05:53:19;8.98;;;8.38;;
36303;SDS011;22335;49.800;8.596;2023-04-24T06:00:03;8.40;;;7.90;;
36303;SDS011;22335;49.800;8.596;2023-04-24T06:07:03;8.82;;;8.13;;
36303;SDS011;22335;49.800;8.596;2023-04-24T06:13:48;8.83;;;8.13;;
36303;SDS011;22335;49.800;8.596;2023-04-24T06:20:50;8.48;;;7.80;;
36303;SDS011;22335;49.800;8.596;2023-04-24T06:27:35;8.60;;;8.00;;
36303;SDS011;22335;49.800;8.596;2023-04-24T06:34:19;9.57;;;8.77;;
36303;SDS011;22335;49.800;8.596;2023-04-24T06:41:02;10.52;;;9.82;;
36303;SDS011;22335;49.800;8.596;2023-04-24T06:47:48;9.70;;;8.90;;
36303;SDS011;22335;49.800;8.596;2023-04-24T06:54:31;10.30;;;9.48;;
36303;SDS011;22335;49.800;8.596;2023-04-24T07:01:15;9.75;;;9.05;;
36303;SDS011;22335;49.800;8.596;2023-04-24T07:08:01;10.27;;;9.43;;
36303;SDS011;22335;49.800;8.596;2023-04-24T07:14:47;10.30;;;9.40;;
36303;SDS011;22335;49.800;8.596;2023-04-24T07:21:33;10.75;;;9.93;;
36303;SDS011;22335;49.800;8.596;2023-04-24T07:28:18;10.23;;;9.43;;
36303;SDS011;22335;49.800;8.596;2023-04-24T07:35:01;9.68;;;9.00;;
36303;SDS011;22335;49.800;8.596;2023-04-24T07:41:45;9.32;;;8.63;;
36303;SDS011;22335;49.800;8.596;2023-04-24T07:48:29;9.10;;;8.50;;
36303;SDS011;22335;49.800;8.596;2023-04-24T07:55:13;8.32;;;7.82;;
36303;SDS011;22335;49.800;8.596;2023-04-24T08:01:56;7.35;;;6.65;;
36303;SDS011;22335;49.800;8.596;2023-04-24T08:08:41;6.10;;;5.80;;
36303;SDS011;22335;49.800;8.596;2023-04-24T08:15:25;8.27;;;6.78;;
36303;SDS011;22335;49.800;8.596;2023-04-24T08:22:09;7.03;;;6.43;;
36303;SDS011;22335;49.800;8.596;2023-04-24T08:28:53;7.47;;;6.70;;
36303;SDS011;22335;49.800;8.596;2023-04-24T08:35:37;7.20;;;6.70;;
36303;SDS011;22335;49.800;8.596;2023-04-24T08:42:21;8.30;;;7.50;;
36303;SDS011;22335;49.800;8.596;2023-04-24T08:49:06;6.85;;;6.45;;
36303;SDS011;22335;49.800;8.596;2023-04-24T08:55:50;7.88;;;7.10;;
36303;SDS011;22335;49.800;8.596;2023-04-24T09:02:39;6.70;;;6.20;;
36303;SDS011;22335;49.800;8.596;2023-04-24T09:09:26;6.45;;;6.00;;
36303;SDS011;22335;49.800;8.596;2023-04-24T09:16:13;7.35;;;6.75;;
36303;SDS011;22335;49.800;8.596;2023-04-24T09:22:57;7.18;;;6.57;;
36303;SDS011;22335;49.800;8.596;2023-04-24T09:29:49;7.20;;;6.70;;
36303;SDS011;22335;49.800;8.596;2023-04-24T09:36:38;6.88;;;6.45;;
36303;SDS011;22335;49.800;8.596;2023-04-24T09:43:23;6.75;;;6.10;;
36303;SDS011;22335;49.800;8.596;2023-04-24T09:50:12;7.47;;;6.87;;
36303;SDS011;22335;49.800;8.596;2023-04-24T09:56:57;7.22;;;6.63;;
36303;SDS011;22335;49.800;8.596;2023-04-24T10:03:41;7.10;;;6.60;;
36303;SDS011;22335;49.800;8.596;2023-04-24T10:10:27;6.30;;;5.90;;
36303;SDS011;22335;49.800;8.596;2023-04-24T10:17:11;5.95;;;5.55;;
36303;SDS011;22335;49.800;8.596;2023-04-24T10:23:56;5.97;;;5.47;;
36303;SDS011;22335;49.800;8.596;2023-04-24T10:30:42;5.30;;;5.00;;
36303;SDS011;22335;49.800;8.596;2023-04-24T10:37:27;6.25;;;5.40;;
36303;SDS011;22335;49.800;8.596;2023-04-24T10:44:11;5.82;;;5.43;;
36303;SDS011;22335;49.800;8.596;2023-04-24T10:50:58;6.82;;;6.30;;
36303;SDS011;22335;49.800;8.596;2023-04-24T11:04:46;5.50;;;5.20;;
36303;SDS011;22335;49.800;8.596;2023-04-24T11:11:35;5.95;;;5.35;;
36303;SDS011;22335;49.800;8.596;2023-04-24T11:18:23;8.70;;;4.90;;
36303;SDS011;22335;49.800;8.596;2023-04-24T11:25:06;5.50;;;5.10;;
36303;SDS011;22335;49.800;8.596;2023-04-24T11:38:38;5.93;;;5.45;;
36303;SDS011;22335;49.800;8.596;2023-04-24T11:45:23;6.35;;;5.68;;
36303;SDS011;22335;49.800;8.596;2023-04-24T11:52:10;7.00;;;6.43;;
36303;SDS011;22335;49.800;8.596;2023-04-24T11:58:53;6.60;;;6.00;;
36303;SDS011;22335;49.800;8.596;2023-04-24T12:05:37;6.15;;;5.65;;
36303;SDS011;22335;49.800;8.596;2023-04-24T12:12:24;5.40;;;4.90;;
36303;SDS011;22335;49.800;8.596;2023-04-24T12:19:09;5.93;;;5.03;;
36303;SDS011;22335;49.800;8.596;2023-04-24T12:25:52;5.57;;;5.07;;
36303;SDS011;22335;49.800;8.596;2023-04-24T12:32:40;6.90;;;6.40;;
36303;SDS011;22335;49.800;8.596;2023-04-24T12:39:25;6.78;;;6.10;;
36303;SDS011;22335;49.800;8.596;2023-04-24T12:46:08;5.78;;;5.38;;
36303;SDS011;22335;49.800;8.596;2023-04-24T12:52:53;6.60;;;6.10;;
36303;SDS011;22335;49.800;8.596;2023-04-24T12:59:36;9.30;;;6.38;;
36303;SDS011;22335;49.800;8.596;2023-04-24T13:06:21;7.22;;;6.40;;
36303;SDS011;22335;49.800;8.596;2023-04-24T13:13:06;6.28;;;5.68;;
36303;SDS011;22335;49.800;8.596;2023-04-24T13:19:50;6.82;;;5.82;;
36303;SDS011;22335;49.800;8.596;2023-04-24T13:33:20;6.38;;;5.80;;
36303;SDS011;22335;49.800;8.596;2023-04-24T13:40:04;6.65;;;6.20;;
36303;SDS011;22335;49.800;8.596;2023-04-24T13:46:50;7.28;;;6.57;;
36303;SDS011;22335;49.800;8.596;2023-04-24T13:53:39;6.78;;;6.18;;
36303;SDS011;22335;49.800;8.596;2023-04-24T14:00:24;7.75;;;7.10;;
36303;SDS011;22335;49.800;8.596;2023-04-24T14:07:07;7.40;;;6.72;;
36303;SDS011;22335;49.800;8.596;2023-04-24T14:13:52;7.07;;;6.57;;
36303;SDS011;22335;49.800;8.596;2023-04-24T14:20:38;7.18;;;6.50;;
36303;SDS011;22335;49.800;8.596;2023-04-24T14:27:21;6.45;;;5.90;;
36303;SDS011;22335;49.800;8.596;2023-04-24T14:34:06;7.25;;;6.47;;
36303;SDS011;22335;49.800;8.596;2023-04-24T14:40:49;7.65;;;6.95;;
36303;SDS011;22335;49.800;8.596;2023-04-24T14:47:45;7.35;;;6.75;;
36303;SDS011;22335;49.800;8.596;2023-04-24T14:54:30;6.50;;;6.00;;
36303;SDS011;22335;49.800;8.596;2023-04-24T15:01:14;6.90;;;5.80;;
36303;SDS011;22335;49.800;8.596;2023-04-24T15:07:58;7.90;;;6.75;;
36303;SDS011;22335;49.800;8.596;2023-04-24T15:14:42;6.78;;;6.28;;
36303;SDS011;22335;49.800;8.596;2023-04-24T15:21:26;7.15;;;6.45;;
36303;SDS011;22335;49.800;8.596;2023-04-24T15:28:09;6.10;;;5.60;;
36303;SDS011;22335;49.800;8.596;2023-04-24T15:34:54;5.75;;;5.38;;
36303;SDS011;22335;49.800;8.596;2023-04-24T15:41:45;6.97;;;6.35;;
36303;SDS011;22335;49.800;8.596;2023-04-24T15:48:28;6.70;;;6.20;;
36303;SDS011;22335;49.800;8.596;2023-04-24T15:55:13;6.60;;;6.10;;
36303;SDS011;22335;49.800;8.596;2023-04-24T16:01:57;6.95;;;6.25;;
36303;SDS011;22335;49.800;8.596;2023-04-24T16:08:41;7.65;;;6.75;;
36303;SDS011;22335;49.800;8.596;2023-04-24T16:15:26;6.80;;;6.32;;
36303;SDS011;22335;49.800;8.596;2023-04-24T16:22:09;7.25;;;6.65;;
36303;SDS011;22335;49.800;8.596;2023-04-24T16:28:53;7.30;;;6.60;;
36303;SDS011;22335;49.800;8.596;2023-04-24T16:35:38;7.53;;;6.93;;
36303;SDS011;22335;49.800;8.596;2023-04-24T16:42:23;8.68;;;7.97;;
36303;SDS011;22335;49.800;8.596;2023-04-24T16:49:06;9.02;;;8.23;;
36303;SDS011;22335;49.800;8.596;2023-04-24T16:55:51;8.43;;;7.70;;
36303;SDS011;22335;49.800;8.596;2023-04-24T17:02:35;8.30;;;7.60;;
36303;SDS011;22335;49.800;8.596;2023-04-24T17:09:18;9.20;;;8.40;;
36303;SDS011;22335;49.800;8.596;2023-04-24T17:16:03;8.30;;;7.57;;
36303;SDS011;22335;49.800;8.596;2023-04-24T17:22:47;8.18;;;7.57;;
36303;SDS011;22335;49.800;8.596;2023-04-24T17:29:31;8.00;;;7.40;;
36303;SDS011;22335;49.800;8.596;2023-04-24T17:36:16;7.47;;;6.90;;
36303;SDS011;22335;49.800;8.596;2023-04-24T17:42:59;8.07;;;7.50;;
36303;SDS011;22335;49.800;8.596;2023-04-24T17:49:43;8.57;;;7.97;;
36303;SDS011;22335;49.800;8.596;2023-04-24T17:56:29;9.27;;;8.60;;
36303;SDS011;22335;49.800;8.596;2023-04-24T18:03:12;9.00;;;8.30;;
36303;SDS011;22335;49.800;8.596;2023-04-24T18:09:56;8.77;;;8.18;;
36303;SDS011;22335;49.800;8.596;2023-04-24T18:16:41;8.73;;;8.05;;
36303;SDS011;22335;49.800;8.596;2023-04-24T18:23:24;9.57;;;8.88;;
36303;SDS011;22335;49.800;8.596;2023-04-24T18:30:08;10.25;;;9.48;;
36303;SDS011;22335;49.800;8.596;2023-04-24T18:36:55;9.45;;;8.75;;
36303;SDS011;22335;49.800;8.596;2023-04-24T18:43:39;8.32;;;7.82;;
36303;SDS011;22335;49.800;8.596;2023-04-24T18:50:22;8.25;;;7.75;;
36303;SDS011;22335;49.800;8.596;2023-04-24T18:57:09;7.55;;;6.95;;
36303;SDS011;22335;49.800;8.596;2023-04-24T19:03:55;7.40;;;7.00;;
36303;SDS011;22335;49.800;8.596;2023-04-24T19:10:39;7.93;;;7.45;;
36303;SDS011;22335;49.800;8.596;2023-04-24T19:17:23;7.97;;;7.45;;
36303;SDS011;22335;49.800;8.596;2023-04-24T19:24:07;7.78;;;7.28;;
36303;SDS011;22335;49.800;8.596;2023-04-24T19:30:51;7.60;;;7.10;;
36303;SDS011;22335;49.800;8.596;2023-04-24T19:37:39;8.25;;;7.75;;
36303;SDS011;22335;49.800;8.596;2023-04-24T19:44:23;8.48;;;7.68;;
36303;SDS011;22335;49.800;8.596;2023-04-24T19:51:06;8.07;;;7.57;;
36303;SDS011;22335;49.800;8.596;2023-04-24T19:57:51;8.35;;;7.72;;
36303;SDS011;22335;49.800;8.596;2023-04-24T20:04:35;9.38;;;8.75;;
36303;SDS011;22335;49.800;8.596;2023-04-24T20:11:18;9.05;;;8.45;;
36303;SDS011;22335;49.800;8.596;2023-04-24T20:18:03;8.63;;;7.93;;
36303;SDS011;22335;49.800;8.596;2023-04-24T20:24:47;9.20;;;8.43;;
36303;SDS011;22335;49.800;8.596;2023-04-24T20:31:32;10.68;;;9.55;;
36303;SDS011;22335;49.800;8.596;2023-04-24T20:38:17;9.80;;;9.10;;
36303;SDS011;22335;49.800;8.596;2023-04-24T20:45:02;10.68;;;9.77;;
36303;SDS011;22335;49.800;8.596;2023-04-24T20:51:48;11.52;;;10.52;;
36303;SDS011;22335;49.800;8.596;2023-04-24T20:58:33;11.02;;;9.98;;
36303;SDS011;22335;49.800;8.596;2023-04-24T21:05:16;10.52;;;9.77;;
36303;SDS011;22335;49.800;8.596;2023-04-24T21:12:03;10.75;;;9.93;;
36303;SDS011;22335;49.800;8.596;2023-04-24T21:18:48;11.05;;;10.23;;
36303;SDS011;22335;49.800;8.596;2023-04-24T21:25:32;10.77;;;9.98;;
36303;SDS011;22335;49.800;8.596;2023-04-24T21:32:16;11.88;;;10.93;;
36303;SDS011;22335;49.800;8.596;2023-04-24T21:39:01;10.18;;;9.23;;
36303;SDS011;22335;49.800;8.596;2023-04-24T21:45:45;11.25;;;10.43;;
36303;SDS011;22335;49.800;8.596;2023-04-24T21:52:28;11.27;;;10.27;;
36303;SDS011;22335;49.800;8.596;2023-04-24T21:59:13;12.13;;;11.02;;
36303;SDS011;22335;49.800;8.596;2023-04-24T22:05:56;12.40;;;11.30;;
36303;SDS011;22335;49.800;8.596;2023-04-24T22:12:40;11.85;;;10.95;;
36303;SDS011;22335;49.800;8.596;2023-04-24T22:19:26;12.25;;;11.25;;
36303;SDS011;22335;49.800;8.596;2023-04-24T22:26:10;11.75;;;10.88;;
36303;SDS011;22335;49.800;8.596;2023-04-24T22:32:53;11.93;;;11.10;;
36303;SDS011;22335;49.800;8.596;2023-04-24T22:39:38;11.75;;;10.93;;
36303;SDS011;22335;49.800;8.596;2023-04-24T22:53:07;7.97;;;7.38;;
36303;SDS011;22335;49.800;8.596;2023-04-24T22:59:53;7.90;;;7.40;;
36303;SDS011;22335;49.800;8.596;2023-04-24T23:06:37;7.30;;;6.80;;
36303;SDS011;22335;49.800;8.596;2023-04-24T23:13:20;6.90;;;6.50;;
36303;SDS011;22335;49.800;8.596;2023-04-24T23:20:06;8.27;;;7.75;;
36303;SDS011;22335;49.800;8.596;2023-04-24T23:26:53;8.50;;;7.82;;
36303;SDS011;22335;49.800;8.596;2023-04-24T23:33:37;9.55;;;8.85;;
36303;SDS011;22335;49.800;8.596;2023-04-24T23:40:22;8.55;;;7.95;;
36303;SDS011;22335;49.800;8.596;2023-04-24T23:47:05;8.57;;;7.88;;
36303;SDS011;22335;49.800;8.596;2023-04-24T23:53:49;9.48;;;8.68;;
